^^
Saratoga-Weather Station Historical Data
Daily Summary for May 13, 2020 Units:  Both    English   Metric
Daily Weekly Monthly Yearly Custom
  High: Low: Average:
Temperature: 75.4 °F /  24.1 °C 54.1 °F /  12.3 °C 63.1 °F /  17.3 °C
Dew Point: 63.7 °F /  17.6 °C 53.2 °F /  11.8 °C 58.6 °F /  14.8 °C
Humidity: 98% 55% 87%
Wind Speed: 8.1mph /  13km/h - 0.9mph /  1.5km/h
Wind Gust: 11mph /  17.7km/h - -
Wind- - South
Pressure: 29.9 in /  1012.5 hPa 29.8 in /  1007.8 hPa -
Precipitation: 0.31 in /  7.9 mm    
Historical Graphs
 
 
Tabular Data for May 13, 2020
Time Temperature Dew Point Pressure Wind Wind Speed Wind Gust Humidity Rainfall Rate (Hourly) solar
00:02 57.9 °F /  14.4 °C 56.5 °F /  13.6 °C 29.8in /  1007.8hPa West 4mph /  6.4km/h 7mph /  11.3km/h 95% 0.22in /  5.6mm 0 W/m2
00:07 57.7 °F /  14.3 °C 56.3 °F /  13.5 °C 29.8in /  1007.8hPa WSW 0.9mph /  1.4km/h 4mph /  6.4km/h 95% 0.2in /  5.1mm 0 W/m2
00:12 57.7 °F /  14.3 °C 56.3 °F /  13.5 °C 29.8in /  1008.5hPa East 2.9mph /  4.7km/h 5mph /  8km/h 95% 0.17in /  4.3mm 0 W/m2
00:17 57.9 °F /  14.4 °C 56.8 °F /  13.8 °C 29.8in /  1009.1hPa East 0.9mph /  1.4km/h 2mph /  3.2km/h 96% 0.19in /  4.8mm 0 W/m2
00:22 57.9 °F /  14.4 °C 56.8 °F /  13.8 °C 29.8in /  1009.1hPa NE 0.9mph /  1.4km/h 2mph /  3.2km/h 96% 0.22in /  5.6mm 0 W/m2
00:27 58.3 °F /  14.6 °C 57.2 °F /  14 °C 29.8in /  1009.1hPa Calm   2mph /  3.2km/h 96% 0.24in /  6.1mm 0 W/m2
00:32 58.3 °F /  14.6 °C 57.2 °F /  14 °C 29.8in /  1009.1hPa NE 0.9mph /  1.4km/h 2mph /  3.2km/h 96% 0.25in /  6.3mm 0 W/m2
00:37 58.3 °F /  14.6 °C 57.2 °F /  14 °C 29.8in /  1008.8hPa NE 0.9mph /  1.4km/h 4mph /  6.4km/h 96% 0.25in /  6.3mm 0 W/m2
00:42 58.3 °F /  14.6 °C 57.2 °F /  14 °C 29.8in /  1008.8hPa Calm   1mph /  1.6km/h 96% 0.24in /  6.1mm 0 W/m2
00:47 58.3 °F /  14.6 °C 57.2 °F /  14 °C 29.8in /  1009.1hPa SE 0.9mph /  1.4km/h 2mph /  3.2km/h 96% 0.24in /  6.1mm 0 W/m2
00:52 58.1 °F /  14.5 °C 57 °F /  13.9 °C 29.8in /  1008.8hPa ESE 0.9mph /  1.4km/h 1mph /  1.6km/h 96% 0.26in /  6.6mm 0 W/m2
00:57 58.1 °F /  14.5 °C 57 °F /  13.9 °C 29.8in /  1008.5hPa Calm   1mph /  1.6km/h 96% 0.26in /  6.6mm 0 W/m2
01:02 57.9 °F /  14.4 °C 56.8 °F /  13.8 °C 29.8in /  1008.5hPa East 0.9mph /  1.4km/h 1mph /  1.6km/h 96% 0.25in /  6.3mm 0 W/m2
01:07 57.9 °F /  14.4 °C 56.8 °F /  13.8 °C 29.8in /  1008.5hPa Calm   1mph /  1.6km/h 96% 0.24in /  6.1mm 0 W/m2
01:12 57.9 °F /  14.4 °C 56.8 °F /  13.8 °C 29.8in /  1008.5hPa Calm     96% 0.21in /  5.3mm 0 W/m2
01:18 57.7 °F /  14.3 °C 56.7 °F /  13.7 °C 29.8in /  1008.5hPa Calm   1mph /  1.6km/h 96% 0.17in /  4.3mm 0 W/m2
01:23 57.7 °F /  14.3 °C 56.7 °F /  13.7 °C 29.8in /  1008.5hPa Calm     96% 0.13in /  3.3mm 0 W/m2
01:28 57.7 °F /  14.3 °C 56.7 °F /  13.7 °C 29.8in /  1008.5hPa Calm     96% 0.09in /  2.3mm 0 W/m2
01:33 57.7 °F /  14.3 °C 56.7 °F /  13.7 °C 29.8in /  1008.5hPa Calm     96% 0.09in /  2.3mm 0 W/m2
01:38 57.7 °F /  14.3 °C 56.7 °F /  13.7 °C 29.8in /  1008.5hPa Calm     96% 0.08in /  2.0mm 0 W/m2
01:43 57.7 °F /  14.3 °C 56.7 °F /  13.7 °C 29.8in /  1008.5hPa Calm     96% 0.06in /  1.5mm 0 W/m2
01:48 57.7 °F /  14.3 °C 56.7 °F /  13.7 °C 29.8in /  1008.5hPa Calm     96% 0.04in /  1.0mm 0 W/m2
01:53 57.6 °F /  14.2 °C 56.5 °F /  13.6 °C 29.8in /  1008.5hPa Calm     96% 0.01in /  0.2mm 0 W/m2
01:58 57.6 °F /  14.2 °C 56.5 °F /  13.6 °C 29.8in /  1008.5hPa Calm     96% 0in /  0.0mm 0 W/m2
02:03 57.6 °F /  14.2 °C 56.5 °F /  13.6 °C 29.8in /  1008.5hPa Calm     96% 0in /  0.0mm 0 W/m2
02:08 57.6 °F /  14.2 °C 56.5 °F /  13.6 °C 29.8in /  1008.5hPa Calm     96% 0in /  0.0mm 0 W/m2
02:13 57.6 °F /  14.2 °C 56.5 °F /  13.6 °C 29.8in /  1008.5hPa Calm     96% 0in /  0.0mm 0 W/m2
02:18 57.6 °F /  14.2 °C 56.5 °F /  13.6 °C 29.8in /  1008.5hPa Calm     96% 0in /  0.0mm 0 W/m2
02:23 57.6 °F /  14.2 °C 56.5 °F /  13.6 °C 29.8in /  1008.5hPa Calm     96% 0in /  0.0mm 0 W/m2
02:28 57.4 °F /  14.1 °C 56.3 °F /  13.5 °C 29.8in /  1008.5hPa Calm     96% 0in /  0.0mm 0 W/m2
02:33 57.4 °F /  14.1 °C 56.3 °F /  13.5 °C 29.8in /  1008.5hPa Calm     96% 0in /  0.0mm 0 W/m2
02:38 57.4 °F /  14.1 °C 56.3 °F /  13.5 °C 29.8in /  1008.5hPa Calm     96% 0in /  0.0mm 0 W/m2
02:43 57.2 °F /  14 °C 56.1 °F /  13.4 °C 29.8in /  1008.5hPa Calm     96% 0in /  0.0mm 0 W/m2
02:48 57.2 °F /  14 °C 56.1 °F /  13.4 °C 29.8in /  1008.5hPa Calm     96% 0in /  0.0mm 0 W/m2
02:53 57 °F /  13.9 °C 55.9 °F /  13.3 °C 29.8in /  1008.5hPa Calm     96% 0in /  0.0mm 0 W/m2
02:58 57.2 °F /  14 °C 56.1 °F /  13.4 °C 29.8in /  1008.5hPa Calm     96% 0in /  0.0mm 0 W/m2
03:03 57.2 °F /  14 °C 56.3 °F /  13.5 °C 29.8in /  1008.5hPa Calm     97% 0in /  0.0mm 0 W/m2
03:08 57.2 °F /  14 °C 56.3 °F /  13.5 °C 29.8in /  1008.5hPa Calm     97% 0in /  0.0mm 0 W/m2
03:13 57.2 °F /  14 °C 56.3 °F /  13.5 °C 29.8in /  1008.5hPa Calm     97% 0in /  0.0mm 0 W/m2
03:18 57.2 °F /  14 °C 56.3 °F /  13.5 °C 29.8in /  1008.5hPa Calm     97% 0in /  0.0mm 0 W/m2
03:23 57 °F /  13.9 °C 56.1 °F /  13.4 °C 29.8in /  1008.5hPa Calm     97% 0in /  0.0mm 0 W/m2
03:28 57 °F /  13.9 °C 56.1 °F /  13.4 °C 29.8in /  1008.8hPa Calm     97% 0in /  0.0mm 0 W/m2
03:33 57 °F /  13.9 °C 56.1 °F /  13.4 °C 29.8in /  1008.8hPa Calm     97% 0in /  0.0mm 0 W/m2
03:38 57.2 °F /  14 °C 56.3 °F /  13.5 °C 29.8in /  1008.8hPa Calm     97% 0in /  0.0mm 0 W/m2
03:43 57.2 °F /  14 °C 56.3 °F /  13.5 °C 29.8in /  1008.5hPa Calm     97% 0in /  0.0mm 0 W/m2
03:48 57 °F /  13.9 °C 56.1 °F /  13.4 °C 29.8in /  1008.5hPa Calm     97% 0in /  0.0mm 0 W/m2
03:53 57 °F /  13.9 °C 56.1 °F /  13.4 °C 29.8in /  1008.5hPa Calm     97% 0.01in /  0.2mm 0 W/m2
03:58 57 °F /  13.9 °C 56.1 °F /  13.4 °C 29.8in /  1008.5hPa Calm     97% 0.01in /  0.2mm 0 W/m2
04:03 56.8 °F /  13.8 °C 55.9 °F /  13.3 °C 29.8in /  1008.5hPa Calm     97% 0.01in /  0.2mm 0 W/m2
04:08 56.8 °F /  13.8 °C 55.9 °F /  13.3 °C 29.8in /  1008.5hPa Calm     97% 0.01in /  0.2mm 0 W/m2
04:13 56.8 °F /  13.8 °C 55.9 °F /  13.3 °C 29.8in /  1008.5hPa Calm   1mph /  1.6km/h 97% 0.01in /  0.2mm 0 W/m2
04:18 56.7 °F /  13.7 °C 55.8 °F /  13.2 °C 29.8in /  1008.5hPa Calm     97% 0.01in /  0.2mm 0 W/m2
04:23 56.5 °F /  13.6 °C 55.6 °F /  13.1 °C 29.8in /  1008.5hPa Calm   1mph /  1.6km/h 97% 0.01in /  0.2mm 0 W/m2
04:28 56.1 °F /  13.4 °C 55.2 °F /  12.9 °C 29.8in /  1008.5hPa Calm     97% 0.01in /  0.2mm 0 W/m2
04:33 55.9 °F /  13.3 °C 54.9 °F /  12.7 °C 29.8in /  1008.5hPa Calm     96% 0.01in /  0.2mm 0 W/m2
04:38 55.6 °F /  13.1 °C 54.5 °F /  12.5 °C 29.8in /  1008.5hPa Calm     96% 0.01in /  0.2mm 0 W/m2
04:43 55.4 °F /  13 °C 54.3 °F /  12.4 °C 29.8in /  1008.5hPa Calm     96% 0.01in /  0.2mm 0 W/m2
04:48 55.2 °F /  12.9 °C 54.1 °F /  12.3 °C 29.8in /  1008.5hPa Calm     96% 0.01in /  0.2mm 0 W/m2
04:53 55 °F /  12.8 °C 54 °F /  12.2 °C 29.8in /  1008.5hPa Calm     96% 0in /  0.0mm 0 W/m2
04:58 54.9 °F /  12.7 °C 54 °F /  12.2 °C 29.8in /  1008.5hPa Calm     97% 0in /  0.0mm 0 W/m2
05:03 54.9 °F /  12.7 °C 53.8 °F /  12.1 °C 29.8in /  1008.5hPa Calm     96% 0in /  0.0mm 0 W/m2
05:08 54.5 °F /  12.5 °C 53.4 °F /  11.9 °C 29.8in /  1008.5hPa Calm     96% 0in /  0.0mm 0 W/m2
05:13 54.3 °F /  12.4 °C 53.2 °F /  11.8 °C 29.8in /  1008.5hPa Calm     96% 0in /  0.0mm 0 W/m2
05:18 54.3 °F /  12.4 °C 53.4 °F /  11.9 °C 29.8in /  1008.5hPa Calm     97% 0in /  0.0mm 0 W/m2
05:23 54.1 °F /  12.3 °C 53.2 °F /  11.8 °C 29.8in /  1008.5hPa ESE 0.9mph /  1.4km/h 1mph /  1.6km/h 97% 0in /  0.0mm 0 W/m2
05:28 54.3 °F /  12.4 °C 53.4 °F /  11.9 °C 29.8in /  1008.5hPa Calm     97% 0in /  0.0mm 0 W/m2
05:33 54.3 °F /  12.4 °C 53.4 °F /  11.9 °C 29.8in /  1008.5hPa ESE 1mph /  1.6km/h 1mph /  1.6km/h 97% 0in /  0.0mm 0 W/m2
05:38 54.5 °F /  12.5 °C 53.6 °F /  12 °C 29.8in /  1008.5hPa Calm     97% 0in /  0.0mm 0 W/m2
05:43 54.9 °F /  12.7 °C 54 °F /  12.2 °C 29.8in /  1008.5hPa Calm     97% 0in /  0.0mm 5 W/m2
05:48 55 °F /  12.8 °C 54.1 °F /  12.3 °C 29.8in /  1008.5hPa Calm     97% 0in /  0.0mm 5 W/m2
05:53 55 °F /  12.8 °C 54.1 °F /  12.3 °C 29.8in /  1008.5hPa Calm     97% 0in /  0.0mm 5 W/m2
05:58 55.2 °F /  12.9 °C 54.3 °F /  12.4 °C 29.8in /  1008.8hPa ESE 0.9mph /  1.4km/h 1mph /  1.6km/h 97% 0in /  0.0mm 16 W/m2
06:04 55.6 °F /  13.1 °C 54.7 °F /  12.6 °C 29.8in /  1008.8hPa Calm   2mph /  3.2km/h 97% 0in /  0.0mm 12 W/m2
06:09 55.4 °F /  13 °C 54.5 °F /  12.5 °C 29.8in /  1008.8hPa Calm     97% 0in /  0.0mm 21 W/m2
06:14 55.6 °F /  13.1 °C 54.7 °F /  12.6 °C 29.8in /  1008.8hPa Calm   2mph /  3.2km/h 97% 0in /  0.0mm 19 W/m2
06:19 55.6 °F /  13.1 °C 54.7 °F /  12.6 °C 29.8in /  1008.8hPa ESE 0.9mph /  1.4km/h 1mph /  1.6km/h 97% 0in /  0.0mm 14 W/m2
06:24 55.8 °F /  13.2 °C 54.9 °F /  12.7 °C 29.8in /  1009.1hPa Calm     97% 0in /  0.0mm 18 W/m2
06:29 55.8 °F /  13.2 °C 54.9 °F /  12.7 °C 29.8in /  1009.1hPa Calm     97% 0in /  0.0mm 26 W/m2
06:34 55.9 °F /  13.3 °C 55 °F /  12.8 °C 29.8in /  1009.1hPa East 0.9mph /  1.4km/h 3mph /  4.8km/h 97% 0in /  0.0mm 21 W/m2
06:39 55.9 °F /  13.3 °C 55 °F /  12.8 °C 29.8in /  1009.1hPa Calm     97% 0in /  0.0mm 28 W/m2
06:44 55.9 °F /  13.3 °C 55 °F /  12.8 °C 29.8in /  1009.1hPa East 0.9mph /  1.4km/h 3mph /  4.8km/h 97% 0in /  0.0mm 26 W/m2
06:49 56.1 °F /  13.4 °C 55.2 °F /  12.9 °C 29.8in /  1009.1hPa Calm   2mph /  3.2km/h 97% 0in /  0.0mm 30 W/m2
06:54 56.1 °F /  13.4 °C 55.2 °F /  12.9 °C 29.8in /  1009.1hPa West 0.9mph /  1.4km/h 2mph /  3.2km/h 97% 0in /  0.0mm 51 W/m2
06:59 56.1 °F /  13.4 °C 55.2 °F /  12.9 °C 29.8in /  1009.1hPa West 0.9mph /  1.4km/h 2mph /  3.2km/h 97% 0in /  0.0mm 58 W/m2
07:04 55.9 °F /  13.3 °C 55 °F /  12.8 °C 29.8in /  1009.1hPa ENE 0.9mph /  1.4km/h 3mph /  4.8km/h 97% 0in /  0.0mm 47 W/m2
07:09 55.8 °F /  13.2 °C 54.9 °F /  12.7 °C 29.8in /  1009.1hPa East 0.9mph /  1.4km/h 2mph /  3.2km/h 97% 0in /  0.0mm 56 W/m2
07:14 55.9 °F /  13.3 °C 55 °F /  12.8 °C 29.8in /  1009.1hPa East 0.9mph /  1.4km/h 2mph /  3.2km/h 97% 0in /  0.0mm 49 W/m2
07:19 55.9 °F /  13.3 °C 55 °F /  12.8 °C 29.8in /  1009.1hPa ENE 2.9mph /  4.7km/h 3mph /  4.8km/h 97% 0in /  0.0mm 42 W/m2
07:24 55.9 °F /  13.3 °C 55 °F /  12.8 °C 29.8in /  1009.1hPa Calm   1mph /  1.6km/h 97% 0in /  0.0mm 62 W/m2
07:29 56.1 °F /  13.4 °C 55.2 °F /  12.9 °C 29.8in /  1009.1hPa East 0.9mph /  1.4km/h 2mph /  3.2km/h 97% 0in /  0.0mm 62 W/m2
07:34 56.3 °F /  13.5 °C 55.4 °F /  13 °C 29.8in /  1009.1hPa Calm   2mph /  3.2km/h 97% 0in /  0.0mm 88 W/m2
07:40 56.7 °F /  13.7 °C 55.8 °F /  13.2 °C 29.8in /  1009.5hPa Calm   1mph /  1.6km/h 97% 0in /  0.0mm 77 W/m2
07:45 56.8 °F /  13.8 °C 55.9 °F /  13.3 °C 29.8in /  1009.5hPa East 2mph /  3.2km/h 4mph /  6.4km/h 97% 0in /  0.0mm 167 W/m2
07:50 56.8 °F /  13.8 °C 55.9 °F /  13.3 °C 29.8in /  1009.5hPa East 2mph /  3.2km/h 2mph /  3.2km/h 97% 0in /  0.0mm 102 W/m2
07:55 56.7 °F /  13.7 °C 55.8 °F /  13.2 °C 29.8in /  1009.5hPa East 0.9mph /  1.4km/h 4mph /  6.4km/h 97% 0in /  0.0mm 86 W/m2
08:00 56.8 °F /  13.8 °C 55.9 °F /  13.3 °C 29.8in /  1009.5hPa ENE 2mph /  3.2km/h 2mph /  3.2km/h 97% 0in /  0.0mm 132 W/m2
08:05 56.8 °F /  13.8 °C 55.9 °F /  13.3 °C 29.8in /  1009.5hPa ESE 2.9mph /  4.7km/h 3mph /  4.8km/h 97% 0in /  0.0mm 84 W/m2
08:10 57 °F /  13.9 °C 56.1 °F /  13.4 °C 29.8in /  1009.8hPa Calm   2mph /  3.2km/h 97% 0in /  0.0mm 127 W/m2
08:15 57.2 °F /  14 °C 56.7 °F /  13.7 °C 29.8in /  1009.8hPa NE 0.9mph /  1.4km/h 2mph /  3.2km/h 98% 0in /  0.0mm 148 W/m2
08:20 57.4 °F /  14.1 °C 56.5 °F /  13.6 °C 29.8in /  1009.8hPa ESE 2.9mph /  4.7km/h 6mph /  9.7km/h 97% 0in /  0.0mm 163 W/m2
08:25 57.6 °F /  14.2 °C 56.7 °F /  13.7 °C 29.8in /  1009.8hPa ENE 2mph /  3.2km/h 4mph /  6.4km/h 97% 0in /  0.0mm 209 W/m2
08:30 57.7 °F /  14.3 °C 57.2 °F /  14 °C 29.8in /  1009.8hPa ENE 0.9mph /  1.4km/h 6mph /  9.7km/h 98% 0in /  0.0mm 213 W/m2
08:35 57.9 °F /  14.4 °C 57 °F /  13.9 °C 29.8in /  1009.8hPa ENE 2mph /  3.2km/h 6mph /  9.7km/h 97% 0in /  0.0mm 244 W/m2
08:40 58.3 °F /  14.6 °C 57.4 °F /  14.1 °C 29.8in /  1009.8hPa East 2.9mph /  4.7km/h 4mph /  6.4km/h 97% 0in /  0.0mm 427 W/m2
08:46 58.8 °F /  14.9 °C 57.9 °F /  14.4 °C 29.8in /  1009.8hPa Calm   4mph /  6.4km/h 97% 0in /  0.0mm 399 W/m2
08:51 59.5 °F /  15.3 °C 59 °F /  15 °C 29.8in /  1009.8hPa East 2mph /  3.2km/h 4mph /  6.4km/h 98% 0in /  0.0mm 411 W/m2
08:56 60.1 °F /  15.6 °C 59.5 °F /  15.3 °C 29.8in /  1010.2hPa SSE 0.9mph /  1.4km/h 1mph /  1.6km/h 98% 0in /  0.0mm 427 W/m2
09:01 60.3 °F /  15.7 °C 59.7 °F /  15.4 °C 29.8in /  1010.2hPa ESE 2mph /  3.2km/h 4mph /  6.4km/h 98% 0in /  0.0mm 120 W/m2
09:06 60.6 °F /  15.9 °C 59.7 °F /  15.4 °C 29.8in /  1009.8hPa SE 2.9mph /  4.7km/h 4mph /  6.4km/h 97% 0in /  0.0mm 457 W/m2
09:11 61.3 °F /  16.3 °C 60.4 °F /  15.8 °C 29.8in /  1009.8hPa ENE 2.9mph /  4.7km/h 3mph /  4.8km/h 97% 0in /  0.0mm 469 W/m2
09:16 61.5 °F /  16.4 °C 60.6 °F /  15.9 °C 29.8in /  1010.2hPa East 2mph /  3.2km/h 4mph /  6.4km/h 97% 0in /  0.0mm 485 W/m2
09:21 62.1 °F /  16.7 °C 61 °F /  16.1 °C 29.8in /  1010.2hPa ESE 2mph /  3.2km/h 3mph /  4.8km/h 96% 0in /  0.0mm 494 W/m2
09:26 62.6 °F /  17 °C 61.2 °F /  16.2 °C 29.8in /  1010.2hPa East 2.9mph /  4.7km/h 3mph /  4.8km/h 95% 0in /  0.0mm 519 W/m2
09:31 63.1 °F /  17.3 °C 61.3 °F /  16.3 °C 29.8in /  1010.2hPa Calm   1mph /  1.6km/h 94% 0in /  0.0mm 527 W/m2
09:36 63.7 °F /  17.6 °C 61.7 °F /  16.5 °C 29.8in /  1010.2hPa NE 0.9mph /  1.4km/h 3mph /  4.8km/h 93% 0in /  0.0mm 552 W/m2
09:41 64.2 °F /  17.9 °C 61.9 °F /  16.6 °C 29.8in /  1010.2hPa NNE 4mph /  6.4km/h 6mph /  9.7km/h 92% 0in /  0.0mm 568 W/m2
09:46 64.9 °F /  18.3 °C 61.9 °F /  16.6 °C 29.8in /  1010.2hPa Calm   2mph /  3.2km/h 90% 0in /  0.0mm 563 W/m2
09:51 65.5 °F /  18.6 °C 61.9 °F /  16.6 °C 29.8in /  1010.2hPa East 2mph /  3.2km/h 4mph /  6.4km/h 88% 0in /  0.0mm 573 W/m2
09:56 66.2 °F /  19 °C 61.9 °F /  16.6 °C 29.8in /  1010.2hPa East 2mph /  3.2km/h 7mph /  11.3km/h 86% 0in /  0.0mm 580 W/m2
10:01 66.4 °F /  19.1 °C 61.3 °F /  16.3 °C 29.8in /  1010.2hPa ENE 0.9mph /  1.4km/h 3mph /  4.8km/h 84% 0in /  0.0mm 594 W/m2
10:06 66.7 °F /  19.3 °C 61 °F /  16.1 °C 29.8in /  1010.2hPa NNW 2mph /  3.2km/h 7mph /  11.3km/h 82% 0in /  0.0mm 601 W/m2
10:11 66.9 °F /  19.4 °C 60.3 °F /  15.7 °C 29.8in /  1010.2hPa NNE 4.9mph /  7.9km/h 9mph /  14.5km/h 79% 0in /  0.0mm 60 W/m2
10:16 66.9 °F /  19.4 °C 60.6 °F /  15.9 °C 29.8in /  1010.2hPa ESE 2.9mph /  4.7km/h 5mph /  8km/h 80% 0in /  0.0mm 116 W/m2
10:21 67.5 °F /  19.7 °C 60.8 °F /  16 °C 29.8in /  1010.2hPa ENE 0.9mph /  1.4km/h 4mph /  6.4km/h 79% 0in /  0.0mm 640 W/m2
10:26 67.8 °F /  19.9 °C 60.3 °F /  15.7 °C 29.8in /  1010.2hPa East 2mph /  3.2km/h 4mph /  6.4km/h 77% 0in /  0.0mm 656 W/m2
10:31 68.5 °F /  20.3 °C 61 °F /  16.1 °C 29.8in /  1010.2hPa SSW 0.9mph /  1.4km/h 2mph /  3.2km/h 77% 0in /  0.0mm 666 W/m2
10:36 68.7 °F /  20.4 °C 61.9 °F /  16.6 °C 29.8in /  1009.8hPa SSW 2mph /  3.2km/h 2mph /  3.2km/h 79% 0in /  0.0mm 679 W/m2
10:41 68.5 °F /  20.3 °C 61.3 °F /  16.3 °C 29.8in /  1009.8hPa WSW 0.9mph /  1.4km/h 3mph /  4.8km/h 78% 0in /  0.0mm 687 W/m2
10:46 68.5 °F /  20.3 °C 60.3 °F /  15.7 °C 29.8in /  1009.8hPa WNW 4mph /  6.4km/h 8mph /  12.9km/h 75% 0in /  0.0mm 701 W/m2
10:51 68.7 °F /  20.4 °C 60.8 °F /  16 °C 29.8in /  1009.8hPa Calm   1mph /  1.6km/h 76% 0in /  0.0mm 710 W/m2
10:56 68.7 °F /  20.4 °C 59.4 °F /  15.2 °C 29.8in /  1009.8hPa WSW 2mph /  3.2km/h 7mph /  11.3km/h 72% 0in /  0.0mm 719 W/m2
11:01 68.9 °F /  20.5 °C 59.5 °F /  15.3 °C 29.8in /  1009.8hPa West 0.9mph /  1.4km/h 5mph /  8km/h 72% 0in /  0.0mm 728 W/m2
11:06 69.3 °F /  20.7 °C 60.6 °F /  15.9 °C 29.8in /  1009.8hPa West 0.9mph /  1.4km/h 4mph /  6.4km/h 74% 0in /  0.0mm 737 W/m2
11:11 69.6 °F /  20.9 °C 61.3 °F /  16.3 °C 29.8in /  1009.8hPa Calm   5mph /  8km/h 75% 0in /  0.0mm 747 W/m2
11:16 70 °F /  21.1 °C 59.7 °F /  15.4 °C 29.8in /  1009.8hPa Calm   3mph /  4.8km/h 70% 0in /  0.0mm 756 W/m2
11:21 70.2 °F /  21.2 °C 59.5 °F /  15.3 °C 29.8in /  1009.8hPa NNE 0.9mph /  1.4km/h 5mph /  8km/h 69% 0in /  0.0mm 765 W/m2
11:26 70.2 °F /  21.2 °C 59.2 °F /  15.1 °C 29.8in /  1009.8hPa Calm   2mph /  3.2km/h 68% 0in /  0.0mm 773 W/m2
11:31 70.7 °F /  21.5 °C 60.4 °F /  15.8 °C 29.8in /  1009.8hPa NNW 2mph /  3.2km/h 5mph /  8km/h 70% 0in /  0.0mm 784 W/m2
11:36 71.1 °F /  21.7 °C 59.9 °F /  15.5 °C 29.8in /  1009.8hPa SW 2mph /  3.2km/h 2mph /  3.2km/h 68% 0in /  0.0mm 798 W/m2
11:41 71.2 °F /  21.8 °C 61 °F /  16.1 °C 29.8in /  1009.8hPa Calm   5mph /  8km/h 70% 0in /  0.0mm 830 W/m2
11:46 72 °F /  22.2 °C 61.7 °F /  16.5 °C 29.8in /  1009.8hPa Calm   2mph /  3.2km/h 70% 0in /  0.0mm 893 W/m2
11:51 72.7 °F /  22.6 °C 61.2 °F /  16.2 °C 29.8in /  1009.8hPa WNW 0.9mph /  1.4km/h 2mph /  3.2km/h 67% 0in /  0.0mm 933 W/m2
11:56 73 °F /  22.8 °C 61.5 °F /  16.4 °C 29.8in /  1009.5hPa NE 0.9mph /  1.4km/h 4mph /  6.4km/h 67% 0in /  0.0mm 904 W/m2
12:01 73.9 °F /  23.3 °C 61.3 °F /  16.3 °C 29.8in /  1009.8hPa Calm   3mph /  4.8km/h 65% 0in /  0.0mm 932 W/m2
12:06 73.6 °F /  23.1 °C 60.6 °F /  15.9 °C 29.8in /  1009.8hPa North 2mph /  3.2km/h 5mph /  8km/h 64% 0in /  0.0mm 304 W/m2
12:11 73.6 °F /  23.1 °C 60.3 °F /  15.7 °C 29.8in /  1009.8hPa NW 0.9mph /  1.4km/h 2mph /  3.2km/h 63% 0in /  0.0mm 309 W/m2
12:16 73.2 °F /  22.9 °C 60.3 °F /  15.7 °C 29.8in /  1009.8hPa East 2.9mph /  4.7km/h 11mph /  17.7km/h 64% 0in /  0.0mm 1025 W/m2
12:21 72.7 °F /  22.6 °C 61.5 °F /  16.4 °C 29.8in /  1009.8hPa Calm   4mph /  6.4km/h 68% 0in /  0.0mm 283 W/m2
12:26 72.5 °F /  22.5 °C 60.4 °F /  15.8 °C 29.8in /  1009.8hPa Calm   11mph /  17.7km/h 66% 0in /  0.0mm 207 W/m2
12:31 72.7 °F /  22.6 °C 60.6 °F /  15.9 °C 29.8in /  1009.8hPa WNW 0.9mph /  1.4km/h 3mph /  4.8km/h 66% 0in /  0.0mm 225 W/m2
12:36 72.7 °F /  22.6 °C 59.4 °F /  15.2 °C 29.8in /  1009.8hPa WNW 2mph /  3.2km/h 4mph /  6.4km/h 63% 0in /  0.0mm 336 W/m2
12:41 72.3 °F /  22.4 °C 58.6 °F /  14.8 °C 29.8in /  1010.2hPa ESE 6mph /  9.7km/h 6mph /  9.7km/h 62% 0in /  0.0mm 230 W/m2
12:46 72.1 °F /  22.3 °C 57.6 °F /  14.2 °C 29.8in /  1010.2hPa SSE 4mph /  6.4km/h 4mph /  6.4km/h 60% 0in /  0.0mm 587 W/m2
12:51 72.9 °F /  22.7 °C 59 °F /  15 °C 29.8in /  1010.2hPa South 0.9mph /  1.4km/h 3mph /  4.8km/h 62% 0in /  0.0mm 933 W/m2
12:56 73.6 °F /  23.1 °C 58.3 °F /  14.6 °C 29.8in /  1010.2hPa SE 2mph /  3.2km/h 4mph /  6.4km/h 59% 0in /  0.0mm 320 W/m2
13:01 74.5 °F /  23.6 °C 59.7 °F /  15.4 °C 29.8in /  1009.8hPa Calm   4mph /  6.4km/h 60% 0in /  0.0mm 1020 W/m2
13:06 75 °F /  23.9 °C 60.3 °F /  15.7 °C 29.8in /  1009.8hPa Calm   3mph /  4.8km/h 60% 0in /  0.0mm 1071 W/m2
13:11 75.4 °F /  24.1 °C 59 °F /  15 °C 29.8in /  1009.8hPa NW 2mph /  3.2km/h 3mph /  4.8km/h 57% 0in /  0.0mm 506 W/m2
13:16 75 °F /  23.9 °C 57.7 °F /  14.3 °C 29.8in /  1009.8hPa ENE 2mph /  3.2km/h 3mph /  4.8km/h 55% 0in /  0.0mm 529 W/m2
13:21 75.2 °F /  24 °C 57.9 °F /  14.4 °C 29.8in /  1009.8hPa NW 2mph /  3.2km/h 2mph /  3.2km/h 55% 0in /  0.0mm 944 W/m2
13:26 74.8 °F /  23.8 °C 57.6 °F /  14.2 °C 29.8in /  1009.8hPa SW 0.9mph /  1.4km/h 3mph /  4.8km/h 55% 0in /  0.0mm 295 W/m2
13:31 73.9 °F /  23.3 °C 57.7 °F /  14.3 °C 29.8in /  1009.8hPa Calm   7mph /  11.3km/h 57% 0in /  0.0mm 279 W/m2
13:36 73.2 °F /  22.9 °C 57.6 °F /  14.2 °C 29.8in /  1009.8hPa WNW 2.9mph /  4.7km/h 4mph /  6.4km/h 58% 0in /  0.0mm 345 W/m2
13:41 73 °F /  22.8 °C 59.2 °F /  15.1 °C 29.8in /  1009.8hPa SSW 2mph /  3.2km/h 6mph /  9.7km/h 62% 0in /  0.0mm 424 W/m2
13:46 73 °F /  22.8 °C 58.8 °F /  14.9 °C 29.8in /  1009.8hPa NW 2mph /  3.2km/h 4mph /  6.4km/h 61% 0in /  0.0mm 446 W/m2
13:51 73.2 °F /  22.9 °C 58.5 °F /  14.7 °C 29.8in /  1009.8hPa West 0.9mph /  1.4km/h 3mph /  4.8km/h 60% 0in /  0.0mm 425 W/m2
13:56 73.4 °F /  23 °C 58.6 °F /  14.8 °C 29.8in /  1009.8hPa NNW 0.9mph /  1.4km/h 4mph /  6.4km/h 60% 0in /  0.0mm 455 W/m2
14:01 73.8 °F /  23.2 °C 60.4 °F /  15.8 °C 29.8in /  1009.8hPa North 0.9mph /  1.4km/h 1mph /  1.6km/h 63% 0in /  0.0mm 403 W/m2
14:06 74.1 °F /  23.4 °C 59.4 °F /  15.2 °C 29.8in /  1009.8hPa Calm   2mph /  3.2km/h 60% 0in /  0.0mm 1172 W/m2
14:11 74.7 °F /  23.7 °C 58.5 °F /  14.7 °C 29.8in /  1009.8hPa NNE 0.9mph /  1.4km/h 2mph /  3.2km/h 57% 0in /  0.0mm 867 W/m2
14:16 74.7 °F /  23.7 °C 59.4 °F /  15.2 °C 29.8in /  1009.8hPa NW 2mph /  3.2km/h 7mph /  11.3km/h 59% 0in /  0.0mm 348 W/m2
14:21 74.5 °F /  23.6 °C 59.2 °F /  15.1 °C 29.8in /  1009.8hPa East 2mph /  3.2km/h 2mph /  3.2km/h 59% 0in /  0.0mm 162 W/m2
14:26 74.1 °F /  23.4 °C 61.2 °F /  16.2 °C 29.8in /  1009.8hPa NNE 2mph /  3.2km/h 5mph /  8km/h 64% 0in /  0.0mm 204 W/m2
14:31 73.9 °F /  23.3 °C 60.6 °F /  15.9 °C 29.8in /  1009.8hPa East 2.9mph /  4.7km/h 4mph /  6.4km/h 63% 0in /  0.0mm 299 W/m2
14:36 73.8 °F /  23.2 °C 60.4 °F /  15.8 °C 29.8in /  1009.8hPa ENE 0.9mph /  1.4km/h 2mph /  3.2km/h 63% 0in /  0.0mm 323 W/m2
14:41 73.9 °F /  23.3 °C 60.6 °F /  15.9 °C 29.8in /  1009.8hPa NE 2.9mph /  4.7km/h 4mph /  6.4km/h 63% 0in /  0.0mm 290 W/m2
14:46 73.9 °F /  23.3 °C 61.9 °F /  16.6 °C 29.8in /  1009.8hPa Calm   1mph /  1.6km/h 66% 0in /  0.0mm 292 W/m2
14:51 73.9 °F /  23.3 °C 59.7 °F /  15.4 °C 29.8in /  1009.8hPa SE 2mph /  3.2km/h 3mph /  4.8km/h 61% 0in /  0.0mm 265 W/m2
14:56 74.1 °F /  23.4 °C 62.1 °F /  16.7 °C 29.8in /  1009.8hPa SSE 2mph /  3.2km/h 2mph /  3.2km/h 66% 0in /  0.0mm 327 W/m2
15:01 74.1 °F /  23.4 °C 61.2 °F /  16.2 °C 29.8in /  1009.5hPa Calm   2mph /  3.2km/h 64% 0in /  0.0mm 378 W/m2
15:06 74.8 °F /  23.8 °C 61.3 °F /  16.3 °C 29.8in /  1009.8hPa Calm   1mph /  1.6km/h 63% 0in /  0.0mm 378 W/m2
15:11 75.4 °F /  24.1 °C 61.9 °F /  16.6 °C 29.8in /  1009.8hPa East 2.9mph /  4.7km/h 6mph /  9.7km/h 63% 0in /  0.0mm 374 W/m2
15:16 75.4 °F /  24.1 °C 59.5 °F /  15.3 °C 29.8in /  1009.5hPa East 6mph /  9.7km/h 6mph /  9.7km/h 58% 0in /  0.0mm 294 W/m2
15:21 74.8 °F /  23.8 °C 59.5 °F /  15.3 °C 29.8in /  1009.5hPa ENE 0.9mph /  1.4km/h 4mph /  6.4km/h 59% 0in /  0.0mm 183 W/m2
15:26 74.7 °F /  23.7 °C 61.7 °F /  16.5 °C 29.8in /  1009.5hPa SSE 0.9mph /  1.4km/h 2mph /  3.2km/h 64% 0in /  0.0mm 114 W/m2
15:31 73.9 °F /  23.3 °C 61 °F /  16.1 °C 29.8in /  1009.5hPa SSE 0.9mph /  1.4km/h 3mph /  4.8km/h 64% 0in /  0.0mm 132 W/m2
15:36 73.8 °F /  23.2 °C 63.3 °F /  17.4 °C 29.8in /  1009.5hPa Calm   1mph /  1.6km/h 70% 0in /  0.0mm 137 W/m2
15:41 73 °F /  22.8 °C 62.2 °F /  16.8 °C 29.8in /  1009.8hPa SE 2mph /  3.2km/h 2mph /  3.2km/h 69% 0in /  0.0mm 90 W/m2
15:46 72.5 °F /  22.5 °C 62.6 °F /  17 °C 29.8in /  1009.8hPa ENE 0.9mph /  1.4km/h 2mph /  3.2km/h 71% 0in /  0.0mm 65 W/m2
15:51 71.8 °F /  22.1 °C 61.9 °F /  16.6 °C 29.8in /  1009.8hPa ENE 0.9mph /  1.4km/h 5mph /  8km/h 71% 0in /  0.0mm 53 W/m2
15:56 71.2 °F /  21.8 °C 62.6 °F /  17 °C 29.8in /  1009.8hPa SE 0.9mph /  1.4km/h 1mph /  1.6km/h 74% 0in /  0.0mm 42 W/m2
16:01 70.3 °F /  21.3 °C 62.4 °F /  16.9 °C 29.8in /  1009.8hPa SE 5mph /  8km/h 5mph /  8km/h 76% 0.01in /  0.2mm 47 W/m2
16:06 69.6 °F /  20.9 °C 63.5 °F /  17.5 °C 29.8in /  1009.8hPa Calm   1mph /  1.6km/h 81% 0.01in /  0.2mm 62 W/m2
16:11 69.1 °F /  20.6 °C 63.7 °F /  17.6 °C 29.8in /  1010.2hPa Calm   1mph /  1.6km/h 83% 0.01in /  0.2mm 58 W/m2
16:16 68.2 °F /  20.1 °C 63.1 °F /  17.3 °C 29.8in /  1010.2hPa Calm   2mph /  3.2km/h 84% 0.02in /  0.5mm 47 W/m2
16:21 67.3 °F /  19.6 °C 62.6 °F /  17 °C 29.8in /  1010.2hPa South 0.9mph /  1.4km/h 2mph /  3.2km/h 85% 0.02in /  0.5mm 49 W/m2
16:26 66.7 °F /  19.3 °C 62.8 °F /  17.1 °C 29.8in /  1010.2hPa Calm   1mph /  1.6km/h 87% 0.02in /  0.5mm 47 W/m2
16:31 66.4 °F /  19.1 °C 62.8 °F /  17.1 °C 29.8in /  1010.2hPa Calm   1mph /  1.6km/h 88% 0.03in /  0.8mm 51 W/m2
16:36 65.8 °F /  18.8 °C 62.4 °F /  16.9 °C 29.8in /  1010.2hPa Calm     89% 0.03in /  0.8mm 56 W/m2
16:42 65.7 °F /  18.7 °C 62.2 °F /  16.8 °C 29.8in /  1010.2hPa Calm   1mph /  1.6km/h 89% 0.03in /  0.8mm 63 W/m2
16:47 65.5 °F /  18.6 °C 62.4 °F /  16.9 °C 29.8in /  1010.2hPa Calm   2mph /  3.2km/h 90% 0.03in /  0.8mm 65 W/m2
16:52 65.3 °F /  18.5 °C 62.2 °F /  16.8 °C 29.8in /  1010.2hPa Calm   1mph /  1.6km/h 90% 0.03in /  0.8mm 63 W/m2
16:57 65.3 °F /  18.5 °C 62.2 °F /  16.8 °C 29.8in /  1010.2hPa Calm     90% 0.04in /  1.0mm 72 W/m2
17:02 65.3 °F /  18.5 °C 62.6 °F /  17 °C 29.8in /  1010.5hPa Calm     91% 0.03in /  0.8mm 79 W/m2
17:07 65.3 °F /  18.5 °C 62.2 °F /  16.8 °C 29.8in /  1010.5hPa NNE 0.9mph /  1.4km/h 1mph /  1.6km/h 90% 0.03in /  0.8mm 70 W/m2
17:12 65.3 °F /  18.5 °C 62.2 °F /  16.8 °C 29.8in /  1010.5hPa Calm   1mph /  1.6km/h 90% 0.03in /  0.8mm 62 W/m2
17:17 65.5 °F /  18.6 °C 62.2 °F /  16.8 °C 29.8in /  1010.5hPa SSE 0.9mph /  1.4km/h 1mph /  1.6km/h 89% 0.02in /  0.5mm 65 W/m2
17:22 65.5 °F /  18.6 °C 61.9 °F /  16.6 °C 29.8in /  1010.5hPa NNW 0.9mph /  1.4km/h 2mph /  3.2km/h 88% 0.02in /  0.5mm 79 W/m2
17:27 65.5 °F /  18.6 °C 62.2 °F /  16.8 °C 29.8in /  1010.5hPa Calm   2mph /  3.2km/h 89% 0.02in /  0.5mm 88 W/m2
17:32 65.5 °F /  18.6 °C 62.4 °F /  16.9 °C 29.8in /  1010.5hPa North 0.9mph /  1.4km/h 3mph /  4.8km/h 90% 0.02in /  0.5mm 79 W/m2
17:37 65.5 °F /  18.6 °C 62.4 °F /  16.9 °C 29.8in /  1010.5hPa Calm     90% 0.02in /  0.5mm 62 W/m2
17:42 65.1 °F /  18.4 °C 62.1 °F /  16.7 °C 29.8in /  1010.5hPa Calm   3mph /  4.8km/h 90% 0.02in /  0.5mm 39 W/m2
17:47 65.1 °F /  18.4 °C 62.1 °F /  16.7 °C 29.8in /  1010.5hPa Calm     90% 0.02in /  0.5mm 44 W/m2
17:52 65.1 °F /  18.4 °C 62.1 °F /  16.7 °C 29.8in /  1010.5hPa Calm     90% 0.02in /  0.5mm 46 W/m2
17:57 64.9 °F /  18.3 °C 61.9 °F /  16.6 °C 29.8in /  1010.5hPa NW 2mph /  3.2km/h 4mph /  6.4km/h 90% 0.01in /  0.2mm 72 W/m2
18:02 64.8 °F /  18.2 °C 61.7 °F /  16.5 °C 29.8in /  1010.5hPa WNW 0.9mph /  1.4km/h 2mph /  3.2km/h 90% 0.01in /  0.2mm 86 W/m2
18:07 64.8 °F /  18.2 °C 61.7 °F /  16.5 °C 29.8in /  1010.5hPa WNW 0.9mph /  1.4km/h 3mph /  4.8km/h 90% 0.01in /  0.2mm 95 W/m2
18:12 64.9 °F /  18.3 °C 61.9 °F /  16.6 °C 29.8in /  1010.5hPa WNW 2.9mph /  4.7km/h 7mph /  11.3km/h 90% 0.01in /  0.2mm 81 W/m2
18:17 64.8 °F /  18.2 °C 61.5 °F /  16.4 °C 29.8in /  1010.5hPa West 0.9mph /  1.4km/h 8mph /  12.9km/h 89% 0.01in /  0.2mm 74 W/m2
18:22 64.8 °F /  18.2 °C 61.5 °F /  16.4 °C 29.8in /  1010.5hPa WSW 0.9mph /  1.4km/h 4mph /  6.4km/h 89% 0.01in /  0.2mm 79 W/m2
18:27 64.8 °F /  18.2 °C 61.5 °F /  16.4 °C 29.8in /  1010.5hPa West 2.9mph /  4.7km/h 5mph /  8km/h 89% 0.01in /  0.2mm 72 W/m2
18:32 64.8 °F /  18.2 °C 61.7 °F /  16.5 °C 29.8in /  1010.5hPa West 2mph /  3.2km/h 4mph /  6.4km/h 90% 0in /  0.0mm 60 W/m2
18:37 64.8 °F /  18.2 °C 61.7 °F /  16.5 °C 29.8in /  1010.5hPa WSW 2.9mph /  4.7km/h 3mph /  4.8km/h 90% 0in /  0.0mm 74 W/m2
18:42 64.8 °F /  18.2 °C 61.7 °F /  16.5 °C 29.8in /  1010.5hPa NW 4.9mph /  7.9km/h 7mph /  11.3km/h 90% 0in /  0.0mm 84 W/m2
18:47 64.6 °F /  18.1 °C 61.3 °F /  16.3 °C 29.9in /  1010.8hPa WSW 2.9mph /  4.7km/h 9mph /  14.5km/h 89% 0in /  0.0mm 76 W/m2
18:52 64.6 °F /  18.1 °C 61.3 °F /  16.3 °C 29.9in /  1010.8hPa WNW 2.9mph /  4.7km/h 6mph /  9.7km/h 89% 0in /  0.0mm 69 W/m2
18:57 64.6 °F /  18.1 °C 61.5 °F /  16.4 °C 29.9in /  1010.8hPa WSW 4.9mph /  7.9km/h 9mph /  14.5km/h 90% 0in /  0.0mm 62 W/m2
19:02 64.6 °F /  18.1 °C 61.5 °F /  16.4 °C 29.8in /  1010.5hPa West 2mph /  3.2km/h 4mph /  6.4km/h 90% 0in /  0.0mm 62 W/m2
19:07 64.6 °F /  18.1 °C 61.5 °F /  16.4 °C 29.9in /  1010.8hPa WNW 2mph /  3.2km/h 9mph /  14.5km/h 90% 0in /  0.0mm 62 W/m2
19:12 64.2 °F /  17.9 °C 61.2 °F /  16.2 °C 29.9in /  1010.8hPa NW 4mph /  6.4km/h 4mph /  6.4km/h 90% 0in /  0.0mm 58 W/m2
19:17 64.2 °F /  17.9 °C 61.2 °F /  16.2 °C 29.8in /  1010.5hPa West 8.1mph /  13km/h 8mph /  12.9km/h 90% 0in /  0.0mm 63 W/m2
19:22 64 °F /  17.8 °C 61 °F /  16.1 °C 29.8in /  1010.5hPa West 4mph /  6.4km/h 6mph /  9.7km/h 90% 0in /  0.0mm 84 W/m2
19:27 63.9 °F /  17.7 °C 61.2 °F /  16.2 °C 29.8in /  1010.5hPa NW 7mph /  11.3km/h 7mph /  11.3km/h 91% 0in /  0.0mm 128 W/m2
19:32 64 °F /  17.8 °C 61.3 °F /  16.3 °C 29.8in /  1010.5hPa West 2mph /  3.2km/h 5mph /  8km/h 91% 0in /  0.0mm 132 W/m2
19:37 64 °F /  17.8 °C 61.3 °F /  16.3 °C 29.8in /  1010.5hPa West 0.9mph /  1.4km/h 3mph /  4.8km/h 91% 0in /  0.0mm 111 W/m2
19:42 64.2 °F /  17.9 °C 61.2 °F /  16.2 °C 29.8in /  1010.5hPa Calm   5mph /  8km/h 90% 0in /  0.0mm 93 W/m2
19:47 64.2 °F /  17.9 °C 61.5 °F /  16.4 °C 29.8in /  1010.5hPa Calm     91% 0in /  0.0mm 84 W/m2
19:52 64.4 °F /  18 °C 61.3 °F /  16.3 °C 29.8in /  1010.5hPa Calm   2mph /  3.2km/h 90% 0in /  0.0mm 105 W/m2
19:57 64.6 °F /  18.1 °C 61.3 °F /  16.3 °C 29.9in /  1010.8hPa WNW 0.9mph /  1.4km/h 2mph /  3.2km/h 89% 0in /  0.0mm 93 W/m2
20:02 64.6 °F /  18.1 °C 61.3 °F /  16.3 °C 29.8in /  1010.5hPa West 0.9mph /  1.4km/h 1mph /  1.6km/h 89% 0in /  0.0mm 72 W/m2
20:07 64.6 °F /  18.1 °C 61.5 °F /  16.4 °C 29.8in /  1010.5hPa Calm     90% 0in /  0.0mm 76 W/m2
20:12 64.4 °F /  18 °C 61.3 °F /  16.3 °C 29.8in /  1010.5hPa Calm     90% 0in /  0.0mm 70 W/m2
20:17 64.2 °F /  17.9 °C 61.2 °F /  16.2 °C 29.8in /  1010.5hPa West 0.9mph /  1.4km/h 2mph /  3.2km/h 90% 0in /  0.0mm 63 W/m2
20:22 64.2 °F /  17.9 °C 61.5 °F /  16.4 °C 29.8in /  1010.5hPa Calm   1mph /  1.6km/h 91% 0in /  0.0mm 60 W/m2
20:27 64 °F /  17.8 °C 61.3 °F /  16.3 °C 29.9in /  1010.8hPa Calm     91% 0in /  0.0mm 63 W/m2
20:32 63.9 °F /  17.7 °C 61.2 °F /  16.2 °C 29.9in /  1010.8hPa Calm   1mph /  1.6km/h 91% 0in /  0.0mm 56 W/m2
20:37 63.9 °F /  17.7 °C 61.2 °F /  16.2 °C 29.9in /  1010.8hPa Calm     91% 0in /  0.0mm 49 W/m2
20:42 63.7 °F /  17.6 °C 60.6 °F /  15.9 °C 29.9in /  1010.8hPa NNW 0.9mph /  1.4km/h 2mph /  3.2km/h 90% 0in /  0.0mm 47 W/m2
20:48 63.7 °F /  17.6 °C 60.6 °F /  15.9 °C 29.9in /  1010.8hPa Calm     90% 0in /  0.0mm 40 W/m2
20:53 63.7 °F /  17.6 °C 61 °F /  16.1 °C 29.9in /  1010.8hPa Calm   2mph /  3.2km/h 91% 0in /  0.0mm 32 W/m2
20:58 63.3 °F /  17.4 °C 60.6 °F /  15.9 °C 29.9in /  1011.2hPa West 0.9mph /  1.4km/h 1mph /  1.6km/h 91% 0in /  0.0mm 23 W/m2
21:03 63.1 °F /  17.3 °C 60.4 °F /  15.8 °C 29.9in /  1011.2hPa Calm   1mph /  1.6km/h 91% 0in /  0.0mm 19 W/m2
21:08 62.8 °F /  17.1 °C 60.1 °F /  15.6 °C 29.9in /  1011.2hPa Calm     91% 0in /  0.0mm 18 W/m2
21:13 62.4 °F /  16.9 °C 59.7 °F /  15.4 °C 29.9in /  1011.2hPa Calm     91% 0in /  0.0mm 14 W/m2
21:18 62.1 °F /  16.7 °C 59.4 °F /  15.2 °C 29.9in /  1011.2hPa NW 2mph /  3.2km/h 2mph /  3.2km/h 91% 0in /  0.0mm 12 W/m2
21:23 61.9 °F /  16.6 °C 59.2 °F /  15.1 °C 29.9in /  1011.2hPa Calm     91% 0in /  0.0mm 11 W/m2
21:28 61.3 °F /  16.3 °C 58.6 °F /  14.8 °C 29.9in /  1011.2hPa WSW 0.9mph /  1.4km/h 2mph /  3.2km/h 91% 0in /  0.0mm 7 W/m2
21:33 61.2 °F /  16.2 °C 58.5 °F /  14.7 °C 29.9in /  1011.2hPa WSW 0.9mph /  1.4km/h 1mph /  1.6km/h 91% 0in /  0.0mm 5 W/m2
21:38 61 °F /  16.1 °C 58.6 °F /  14.8 °C 29.9in /  1011.5hPa Calm   1mph /  1.6km/h 92% 0in /  0.0mm 0 W/m2
21:43 60.6 °F /  15.9 °C 58.3 °F /  14.6 °C 29.9in /  1011.5hPa Calm   1mph /  1.6km/h 92% 0in /  0.0mm 0 W/m2
21:48 60.4 °F /  15.8 °C 58.5 °F /  14.7 °C 29.9in /  1011.5hPa Calm   1mph /  1.6km/h 93% 0in /  0.0mm 0 W/m2
21:53 60.3 °F /  15.7 °C 58.3 °F /  14.6 °C 29.9in /  1011.9hPa Calm     93% 0in /  0.0mm 0 W/m2
21:58 60.1 °F /  15.6 °C 58.1 °F /  14.5 °C 29.9in /  1011.9hPa Calm     93% 0in /  0.0mm 0 W/m2
22:03 60.1 °F /  15.6 °C 58.1 °F /  14.5 °C 29.9in /  1011.9hPa Calm     93% 0in /  0.0mm 0 W/m2
22:08 59.9 °F /  15.5 °C 57.9 °F /  14.4 °C 29.9in /  1011.9hPa Calm     93% 0in /  0.0mm 0 W/m2
22:13 59.7 °F /  15.4 °C 57.7 °F /  14.3 °C 29.9in /  1012.2hPa Calm     93% 0in /  0.0mm 0 W/m2
22:18 59.5 °F /  15.3 °C 57.6 °F /  14.2 °C 29.9in /  1012.2hPa Calm     93% 0in /  0.0mm 0 W/m2
22:23 59.4 °F /  15.2 °C 57.6 °F /  14.2 °C 29.9in /  1012.2hPa Calm     94% 0in /  0.0mm 0 W/m2
22:28 59.4 °F /  15.2 °C 57.6 °F /  14.2 °C 29.9in /  1012.2hPa Calm     94% 0in /  0.0mm 0 W/m2
22:33 59.4 °F /  15.2 °C 57.6 °F /  14.2 °C 29.9in /  1012.2hPa Calm     94% 0in /  0.0mm 0 W/m2
22:38 59.2 °F /  15.1 °C 57.4 °F /  14.1 °C 29.9in /  1012.2hPa Calm     94% 0in /  0.0mm 0 W/m2
22:43 59.2 °F /  15.1 °C 57.4 °F /  14.1 °C 29.9in /  1012.2hPa Calm     94% 0in /  0.0mm 0 W/m2
22:48 59.2 °F /  15.1 °C 57.4 °F /  14.1 °C 29.9in /  1012.2hPa Calm     94% 0in /  0.0mm 0 W/m2
22:53 59.2 °F /  15.1 °C 57.4 °F /  14.1 °C 29.9in /  1012.2hPa Calm     94% 0in /  0.0mm 0 W/m2
22:58 59.2 °F /  15.1 °C 57.7 °F /  14.3 °C 29.9in /  1012.5hPa Calm     95% 0in /  0.0mm 0 W/m2
23:03 59.2 °F /  15.1 °C 57.7 °F /  14.3 °C 29.9in /  1012.5hPa Calm     95% 0in /  0.0mm 0 W/m2
23:08 59.2 °F /  15.1 °C 57.7 °F /  14.3 °C 29.9in /  1012.5hPa Calm     95% 0in /  0.0mm 0 W/m2
23:13 59.4 °F /  15.2 °C 57.9 °F /  14.4 °C 29.9in /  1012.5hPa Calm     95% 0in /  0.0mm 0 W/m2
23:18 59.4 °F /  15.2 °C 57.9 °F /  14.4 °C 29.9in /  1012.5hPa WSW 0.9mph /  1.4km/h 2mph /  3.2km/h 95% 0in /  0.0mm 0 W/m2
23:23 59.2 °F /  15.1 °C 57.7 °F /  14.3 °C 29.9in /  1012.5hPa Calm     95% 0in /  0.0mm 0 W/m2
23:28 59.2 °F /  15.1 °C 57.7 °F /  14.3 °C 29.9in /  1012.5hPa Calm     95% 0in /  0.0mm 0 W/m2
23:33 59.2 °F /  15.1 °C 57.7 °F /  14.3 °C 29.9in /  1012.5hPa Calm     95% 0in /  0.0mm 0 W/m2
23:38 59.2 °F /  15.1 °C 57.7 °F /  14.3 °C 29.9in /  1012.5hPa WSW 0.9mph /  1.4km/h 1mph /  1.6km/h 95% 0in /  0.0mm 0 W/m2
23:43 59 °F /  15 °C 57.6 °F /  14.2 °C 29.9in /  1012.5hPa Calm   1mph /  1.6km/h 95% 0in /  0.0mm 0 W/m2
23:48 58.8 °F /  14.9 °C 57.4 °F /  14.1 °C 29.9in /  1012.5hPa Calm     95% 0in /  0.0mm 0 W/m2
23:53 58.8 °F /  14.9 °C 57.4 °F /  14.1 °C 29.9in /  1012.5hPa Calm   1mph /  1.6km/h 95% 0in /  0.0mm 0 W/m2
23:58 58.6 °F /  14.8 °C 57.2 °F /  14 °C 29.9in /  1012.5hPa Calm     95% 0in /  0.0mm 0 W/m2
Juneau County Weather
Compliments of Weather Underground - 4 mb